Time;durP1;ratioP1;P1;durP2;ratioP2;P2;SDS_P1;SDS_P2;PMS_P1;PMS_P2;Temp;Humidity;BMP_temperature;BMP_pressure;BME280_temperature;BME280_humidity;BME280_pressure;Samples;Min_cycle;Max_cycle;Signal;HPM_P1;HPM_P2
2022/07/03 00:01:03;;;;;;;4.63;2.05;;;;;;;17.18;75.58;101703.41;4975253;28;20076;-34
2022/07/03 00:03:29;;;;;;;8.07;2.30;;;;;;;17.04;76.28;101713.13;4975624;28;20030;-35
2022/07/03 00:05:54;;;;;;;5.80;2.50;;;;;;;16.89;76.72;101715.19;4975339;28;20023;-36
2022/07/03 00:08:19;;;;;;;5.22;2.67;;;;;;;16.82;77.61;101719.59;4975447;28;20105;-34
2022/07/03 00:10:45;;;;;;;5.63;2.55;;;;;;;16.68;77.66;101711.78;4975197;28;20027;-36
2022/07/03 00:13:10;;;;;;;5.63;2.28;;;;;;;16.68;77.12;101705.75;4975125;28;20478;-35
2022/07/03 00:15:36;;;;;;;3.50;2.20;;;;;;;16.65;77.06;101706.97;4975378;28;20027;-34
2022/07/03 00:18:01;;;;;;;6.18;2.30;;;;;;;16.56;77.09;101702.97;4975089;28;20026;-36
2022/07/03 00:20:30;;;;;;;4.25;2.28;;;;;;;16.60;77.01;101703.34;4975075;28;20114;-35
2022/07/03 00:22:57;;;;;;;4.22;2.20;;;;;;;16.49;77.89;101710.03;4974813;28;20050;-34
2022/07/03 00:25:22;;;;;;;7.07;2.40;;;;;;;16.53;77.62;101706.00;4975113;28;20026;-36
2022/07/03 00:27:49;;;;;;;6.07;2.20;;;;;;;16.51;77.79;101700.16;4975258;28;20114;-35
2022/07/03 00:30:15;;;;;;;3.38;2.08;;;;;;;16.39;78.10;101701.81;4975049;28;20485;-36
2022/07/03 00:32:42;;;;;;;8.63;2.25;;;;;;;16.40;77.57;101708.59;4975018;28;20026;-35
2022/07/03 00:35:08;;;;;;;3.97;2.03;;;;;;;16.35;78.05;101703.22;4973480;28;20031;-34
2022/07/03 00:37:33;;;;;;;5.85;2.30;;;;;;;16.28;78.19;101708.41;4973586;28;20381;-36
2022/07/03 00:39:59;;;;;;;3.67;2.17;;;;;;;16.35;78.74;101711.03;4974822;28;20114;-35
2022/07/03 00:42:27;;;;;;;3.10;2.20;;;;;;;16.46;78.88;101700.78;4974650;28;20430;-34
2022/07/03 00:44:55;;;;;;;5.50;2.30;;;;;;;16.57;78.00;101693.34;4974720;28;20484;-36
2022/07/03 00:47:22;;;;;;;3.97;1.98;;;;;;;16.57;77.85;101688.13;4974885;28;20026;-34
2022/07/03 00:49:57;;;;;;;4.13;2.08;;;;;;;16.37;78.44;101694.19;4974671;28;20062;-34
2022/07/03 00:52:23;;;;;;;5.32;2.38;;;;;;;16.06;78.69;101676.56;4974818;28;20046;-35
2022/07/03 00:54:57;;;;;;;5.18;2.17;;;;;;;16.33;79.36;101695.59;4974592;28;20055;-34
2022/07/03 00:57:24;;;;;;;3.88;2.10;;;;;;;16.44;79.46;101681.13;4974559;28;20031;-35
2022/07/03 00:59:51;;;;;;;5.38;2.38;;;;;;;16.44;78.58;101689.75;4974837;28;20057;-34
2022/07/03 01:02:38;;;;;;;4.65;2.28;;;;;;;16.47;78.74;101691.16;4974570;28;20105;-36
2022/07/03 01:05:25;;;;;;;4.75;2.28;;;;;;;16.37;78.75;101690.75;4974752;28;20029;-35
2022/07/03 01:08:11;;;;;;;9.95;2.38;;;;;;;16.38;79.28;101692.38;4974741;28;20062;-38
2022/07/03 01:10:47;;;;;;;4.28;2.45;;;;;;;16.39;79.73;101688.75;4975044;28;20081;-34
2022/07/03 01:13:46;;;;;;;4.28;2.28;;;;;;;16.39;79.34;101689.56;4974963;28;20113;-35
2022/07/03 01:16:27;;;;;;;4.38;2.25;;;;;;;16.34;79.05;101692.00;4974637;28;20041;-34
2022/07/03 01:19:21;;;;;;;5.65;2.20;;;;;;;16.33;79.96;101694.78;4975018;28;20023;-35
2022/07/03 01:21:49;;;;;;;6.57;2.75;;;;;;;16.27;79.97;101688.56;4973300;28;20064;-35
2022/07/03 01:24:36;;;;;;;4.85;2.30;;;;;;;16.30;80.54;101695.19;4972973;28;20053;-34
2022/07/03 01:27:06;;;;;;;5.20;2.60;;;;;;;15.98;80.86;101687.97;4974627;28;20026;-37
2022/07/03 01:29:45;;;;;;;4.20;2.30;;;;;;;16.14;81.25;101685.97;4974419;28;20027;-35
2022/07/03 01:32:12;;;;;;;6.68;3.03;;;;;;;16.14;81.55;101673.75;4974608;28;20077;-36
2022/07/03 01:34:43;;;;;;;6.85;3.28;;;;;;;16.16;81.94;101679.53;4974274;28;20061;-35
2022/07/03 01:37:10;;;;;;;6.93;3.10;;;;;;;16.14;82.16;101670.31;4974145;28;20438;-35
2022/07/03 01:39:37;;;;;;;7.70;3.65;;;;;;;16.07;81.84;101665.13;4978107;28;20031;-36
2022/07/03 01:42:03;;;;;;;7.70;3.53;;;;;;;16.24;81.15;101665.50;4977904;28;20026;-34
2022/07/03 01:44:30;;;;;;;9.00;3.40;;;;;;;16.24;81.27;101668.13;4977921;28;20038;-35
2022/07/03 01:46:58;;;;;;;6.13;3.22;;;;;;;16.27;81.12;101665.09;4978317;28;20023;-35
2022/07/03 01:49:26;;;;;;;5.43;3.40;;;;;;;16.19;81.26;101665.31;4977771;28;20022;-34
2022/07/03 01:51:53;;;;;;;6.07;3.22;;;;;;;16.15;82.46;101674.56;4977756;28;20030;-35
2022/07/03 01:54:19;;;;;;;5.43;2.92;;;;;;;16.04;82.47;101675.94;4977810;28;20440;-34
2022/07/03 01:56:46;;;;;;;5.82;3.35;;;;;;;16.08;83.10;101677.13;4977713;28;20069;-35
2022/07/03 01:59:11;;;;;;;7.80;3.33;;;;;;;15.99;83.34;101663.50;4977516;28;20081;-35
2022/07/03 02:01:57;;;;;;;8.02;3.47;;;;;;;15.93;83.25;101661.72;4978143;28;20026;-35
2022/07/03 02:04:32;;;;;;;6.88;3.63;;;;;;;15.94;83.43;101663.34;4977774;28;20031;-36
2022/07/03 02:07:09;;;;;;;9.45;3.67;;;;;;;15.87;83.24;101657.31;4976329;28;20027;-34
2022/07/03 02:09:50;;;;;;;5.30;3.30;;;;;;;16.09;82.35;101657.09;4977680;28;20035;-36
2022/07/03 02:12:18;;;;;;;5.30;3.13;;;;;;;16.09;81.27;101649.28;4977440;28;20019;-35
2022/07/03 02:15:01;;;;;;;9.25;3.50;;;;;;;16.22;81.57;101657.06;4977478;28;20058;-36
2022/07/03 02:17:33;;;;;;;6.25;3.22;;;;;;;15.92;82.33;101664.53;4977369;28;20065;-37
2022/07/03 02:20:07;;;;;;;7.25;3.42;;;;;;;15.72;83.69;101661.91;4977437;28;20031;-35
2022/07/03 02:22:39;;;;;;;7.22;3.63;;;;;;;15.63;84.28;101657.88;4976989;28;20054;-35
2022/07/03 02:25:07;;;;;;;8.27;3.50;;;;;;;15.60;84.87;101661.66;4977754;28;20027;-35
2022/07/03 02:27:46;;;;;;;7.15;3.50;;;;;;;15.68;84.97;101658.09;4977233;28;20093;-35
2022/07/03 02:30:13;;;;;;;5.97;3.15;;;;;;;15.74;84.16;101663.31;4977607;28;20106;-35
2022/07/03 02:32:47;;;;;;;11.88;3.10;;;;;;;15.89;81.89;101651.91;4976954;28;20054;-36
2022/07/03 02:35:17;;;;;;;5.85;2.45;;;;;;;16.12;79.76;101670.53;4977181;28;20030;-35
2022/07/03 02:38:20;;;;;;;4.97;2.38;;;;;;;16.30;78.82;101663.91;4976020;28;20382;-35
2022/07/03 02:40:57;;;;;;;9.13;2.40;;;;;;;16.52;77.25;101661.84;4976852;28;20425;-35
2022/07/03 02:44:02;;;;;;;3.97;2.00;;;;;;;16.56;76.02;101666.44;4977035;28;20015;-35
2022/07/03 02:47:20;;;;;;;3.58;1.90;;;;;;;16.70;77.03;101660.19;4977043;28;20050;-34
2022/07/03 02:50:04;;;;;;;4.78;2.00;;;;;;;16.78;75.19;101658.38;4957746;28;20046;-34
2022/07/03 02:53:03;;;;;;;5.07;2.08;;;;;;;16.80;75.46;101662.41;4976839;28;20117;-35
2022/07/03 02:55:38;;;;;;;9.73;2.00;;;;;;;16.96;75.36;101660.31;4976505;28;20027;-35
2022/07/03 02:58:20;;;;;;;5.32;2.00;;;;;;;16.96;74.42;101658.50;4976597;28;20038;-35
2022/07/03 03:01:03;;;;;;;3.97;1.83;;;;;;;16.90;74.45;101648.91;4976557;28;20026;-33
2022/07/03 03:03:30;;;;;;;3.92;1.83;;;;;;;16.77;76.54;101654.97;4976414;28;20027;-35
2022/07/03 03:06:02;;;;;;;3.47;1.90;;;;;;;16.72;75.62;101657.38;4976615;28;20516;-36
2022/07/03 03:08:41;;;;;;;3.42;1.90;;;;;;;16.69;76.76;101652.56;4976731;28;20026;-37
2022/07/03 03:11:13;;;;;;;7.05;2.05;;;;;;;16.82;75.49;101643.91;4976392;28;20358;-35
2022/07/03 03:13:44;;;;;;;3.10;1.80;;;;;;;16.77;75.20;101657.56;4976291;28;20102;-34
2022/07/03 03:16:11;;;;;;;4.55;1.80;;;;;;;16.87;75.70;101649.31;4976156;28;20031;-34
2022/07/03 03:18:43;;;;;;;4.38;2.10;;;;;;;16.80;74.94;101657.19;4976796;28;20042;-36
2022/07/03 03:21:10;;;;;;;6.80;2.10;;;;;;;16.73;75.64;101658.19;4976093;28;20030;-35
2022/07/03 03:23:51;;;;;;;4.47;1.90;;;;;;;16.55;77.41;101648.41;4975887;28;20055;-35
2022/07/03 03:26:22;;;;;;;4.57;2.40;;;;;;;16.51;77.10;101653.19;4975343;28;20121;-35
2022/07/03 03:28:48;;;;;;;5.20;2.28;;;;;;;16.63;76.53;101653.38;4975459;28;20415;-42
2022/07/03 03:31:14;;;;;;;4.72;2.10;;;;;;;16.76;75.95;101660.38;4975043;28;20031;-35
2022/07/03 03:33:42;;;;;;;4.85;2.05;;;;;;;16.64;76.85;101665.44;4975608;28;20034;-37
2022/07/03 03:36:09;;;;;;;5.90;2.00;;;;;;;16.61;77.06;101653.59;4975187;28;20027;-35
2022/07/03 03:38:35;;;;;;;3.78;1.90;;;;;;;16.70;76.20;101657.56;4975133;28;20355;-35
2022/07/03 03:41:02;;;;;;;4.50;2.45;;;;;;;16.77;75.99;101652.34;4975159;28;20378;-35
2022/07/03 03:43:27;;;;;;;4.38;2.08;;;;;;;16.79;76.28;101652.94;4975694;28;20034;-34
2022/07/03 03:45:53;;;;;;;5.78;2.28;;;;;;;16.87;75.37;101655.34;4975321;28;20344;-35
2022/07/03 03:48:18;;;;;;;5.07;2.22;;;;;;;16.86;74.79;101653.75;4974975;28;20053;-35
2022/07/03 03:50:43;;;;;;;7.60;2.60;;;;;;;17.02;74.63;101651.66;4974695;28;20027;-34
2022/07/03 03:53:11;;;;;;;6.63;2.38;;;;;;;17.14;74.54;101653.38;4974984;28;20026;-34
2022/07/03 03:55:36;;;;;;;9.45;2.33;;;;;;;17.07;74.33;101652.63;4974574;28;20027;-35
2022/07/03 03:58:04;;;;;;;4.57;2.20;;;;;;;17.11;74.57;101656.41;4974907;28;20026;-35
2022/07/03 04:00:30;;;;;;;4.68;2.33;;;;;;;17.05;74.46;101662.47;4974199;28;20401;-34
2022/07/03 04:02:55;;;;;;;7.18;2.30;;;;;;;16.96;76.54;101658.50;4974826;28;20027;-35
2022/07/03 04:05:20;;;;;;;5.60;2.50;;;;;;;17.11;75.33;101659.03;4974765;28;20030;-34
2022/07/03 04:07:46;;;;;;;6.82;2.47;;;;;;;17.00;75.42;101657.06;4974728;28;20106;-35
2022/07/03 04:10:11;;;;;;;6.57;2.53;;;;;;;16.88;76.24;101650.91;4974386;28;20107;-36
2022/07/03 04:12:37;;;;;;;5.82;2.22;;;;;;;16.94;76.06;101657.09;4974718;28;20030;-35
2022/07/03 04:15:02;;;;;;;5.35;2.47;;;;;;;16.98;76.25;101661.72;4974267;28;20044;-35
2022/07/03 04:17:28;;;;;;;4.35;2.05;;;;;;;17.09;76.18;101661.06;4974629;28;20027;-35
2022/07/03 04:19:53;;;;;;;6.05;2.70;;;;;;;17.17;76.31;101654.78;4974504;28;20200;-35
2022/07/03 04:22:18;;;;;;;8.73;2.70;;;;;;;17.08;75.90;101659.44;4938197;28;1051276;-35
2022/07/03 04:24:44;;;;;;;6.53;2.67;;;;;;;17.16;75.90;101662.84;4974970;28;20041;-36
2022/07/03 04:27:09;;;;;;;7.78;2.55;;;;;;;17.13;76.38;101651.00;4975507;28;20042;-35
2022/07/03 04:29:34;;;;;;;5.85;2.40;;;;;;;17.27;75.84;101647.31;4975441;28;20030;-37
2022/07/03 04:32:00;;;;;;;5.05;2.35;;;;;;;17.35;75.54;101648.88;4974860;28;20053;-34
2022/07/03 04:34:25;;;;;;;5.68;2.47;;;;;;;17.34;75.17;101648.06;4975183;28;20077;-34
2022/07/03 04:36:50;;;;;;;7.65;2.60;;;;;;;17.44;75.49;101652.03;4973572;28;20054;-36
2022/07/03 04:39:16;;;;;;;6.95;2.60;;;;;;;17.33;75.08;101653.50;4975011;28;20109;-35
2022/07/03 04:41:41;;;;;;;3.90;2.25;;;;;;;17.43;75.46;101661.66;4975082;28;20077;-35
2022/07/03 04:44:06;;;;;;;8.23;2.40;;;;;;;17.31;75.42;101666.75;4974631;28;20432;-35
2022/07/03 04:46:32;;;;;;;9.48;2.50;;;;;;;17.45;74.93;101677.16;4975317;28;20031;-37
2022/07/03 04:48:57;;;;;;;6.45;3.00;;;;;;;17.43;75.42;101668.69;4974928;28;20030;-35
2022/07/03 04:51:22;;;;;;;6.07;2.47;;;;;;;17.52;75.68;101668.25;4974961;28;20466;-36
2022/07/03 04:53:48;;;;;;;5.50;2.35;;;;;;;17.72;74.09;101667.28;4974614;28;20390;-35
2022/07/03 04:56:13;;;;;;;4.45;2.22;;;;;;;17.78;74.44;101664.69;4975069;28;20085;-35
2022/07/03 04:58:38;;;;;;;5.38;2.33;;;;;;;17.91;73.44;101665.59;4974595;28;20402;-36
2022/07/03 05:01:04;;;;;;;8.00;2.17;;;;;;;18.07;73.41;101664.22;4974540;28;20030;-35
2022/07/03 05:03:29;;;;;;;5.22;2.40;;;;;;;17.98;74.29;101672.38;4974537;28;20030;-37
2022/07/03 05:05:54;;;;;;;7.57;2.38;;;;;;;18.18;73.48;101672.19;4974504;28;20045;-36
2022/07/03 05:08:20;;;;;;;6.00;2.20;;;;;;;18.44;72.97;101654.59;4974462;28;20031;-37
2022/07/03 05:10:46;;;;;;;8.00;2.38;;;;;;;18.47;72.08;101681.16;4973281;28;20054;-36
2022/07/03 05:13:12;;;;;;;8.18;2.40;;;;;;;18.73;71.59;101687.13;4975539;28;20070;-35
2022/07/03 05:15:37;;;;;;;7.97;2.10;;;;;;;18.83;71.54;101684.00;4978314;28;20054;-35
2022/07/03 05:18:02;;;;;;;4.55;1.83;;;;;;;18.47;72.42;101689.00;4978546;28;20106;-35
2022/07/03 05:20:28;;;;;;;5.90;1.90;;;;;;;18.39;72.71;101686.69;4978646;28;20170;-35
2022/07/03 05:23:01;;;;;;;5.32;1.77;;;;;;;18.49;72.61;101689.56;4977999;28;20182;-36
2022/07/03 05:25:28;;;;;;;4.68;1.80;;;;;;;18.68;72.19;101679.13;4978919;28;20458;-36
2022/07/03 05:27:54;;;;;;;5.65;1.85;;;;;;;18.85;71.95;101685.41;4978180;28;20023;-36
2022/07/03 05:30:20;;;;;;;9.55;1.90;;;;;;;18.85;72.01;101688.00;4978490;28;20481;-36
2022/07/03 05:32:46;;;;;;;7.88;1.75;;;;;;;19.00;71.45;101689.44;4976891;28;20027;-36
2022/07/03 05:35:11;;;;;;;4.65;1.63;;;;;;;19.17;70.01;101667.66;4978266;28;20030;-36
2022/07/03 05:37:37;;;;;;;5.95;1.60;;;;;;;19.41;69.89;101685.28;4977923;28;20421;-37
2022/07/03 05:40:04;;;;;;;4.70;1.60;;;;;;;20.98;64.92;101699.56;4978128;28;20053;-35
2022/07/03 05:42:29;;;;;;;8.48;1.60;;;;;;;23.33;57.19;101692.41;4978239;28;20038;-35
2022/07/03 05:44:55;;;;;;;4.95;1.35;;;;;;;26.02;47.49;101680.44;4977927;28;20470;-35
2022/07/03 05:47:20;;;;;;;6.40;1.48;;;;;;;27.57;44.29;101683.84;4977844;28;20031;-36
2022/07/03 05:49:45;;;;;;;3.90;1.40;;;;;;;25.96;47.36;101688.69;4978042;28;20050;-36
2022/07/03 05:52:10;;;;;;;8.65;1.52;;;;;;;24.87;49.39;101699.44;4978297;28;20269;-36
2022/07/03 05:54:36;;;;;;;6.25;1.30;;;;;;;22.98;56.80;101688.38;4977773;28;20445;-36
2022/07/03 05:57:01;;;;;;;8.43;1.67;;;;;;;25.79;48.41;101678.34;4978462;28;20118;-36
2022/07/03 05:59:26;;;;;;;5.18;1.38;;;;;;;25.14;48.75;101700.03;4977838;28;20023;-36
2022/07/03 06:01:52;;;;;;;5.25;1.48;;;;;;;22.15;56.76;101692.81;4978143;28;20113;-35
2022/07/03 06:04:17;;;;;;;6.25;1.75;;;;;;;27.04;44.86;101689.00;4977870;28;20374;-35
2022/07/03 06:06:42;;;;;;;7.75;1.30;;;;;;;27.58;43.59;101680.13;4977799;28;20027;-36
2022/07/03 06:09:08;;;;;;;3.65;1.50;;;;;;;29.52;40.70;101690.94;4977665;28;20057;-35
2022/07/03 06:11:33;;;;;;;5.85;1.50;;;;;;;30.42;38.31;101682.63;4977330;28;20023;-35
2022/07/03 06:13:58;;;;;;;5.65;1.70;;;;;;;30.22;37.80;101689.94;4977703;28;20089;-35
2022/07/03 06:16:24;;;;;;;7.15;1.70;;;;;;;30.57;37.24;101695.63;4977587;28;20031;-35
2022/07/03 06:18:49;;;;;;;5.35;1.40;;;;;;;30.43;37.37;101690.31;4977290;28;20062;-35
2022/07/03 06:21:14;;;;;;;5.70;1.80;;;;;;;26.20;46.25;101692.31;4977241;28;20110;-36
2022/07/03 06:23:40;;;;;;;5.35;1.60;;;;;;;28.12;43.10;101700.31;4976831;28;20579;-37
2022/07/03 06:26:05;;;;;;;7.45;1.50;;;;;;;29.37;39.49;101707.94;4977736;28;20029;-36
2022/07/03 06:28:30;;;;;;;8.15;1.90;;;;;;;25.29;47.84;101701.09;4977115;28;20384;-36
2022/07/03 06:30:56;;;;;;;7.65;1.35;;;;;;;23.08;53.91;101698.25;4977044;28;20022;-36
2022/07/03 06:33:22;;;;;;;5.82;1.48;;;;;;;28.99;41.20;101705.31;4977131;28;20026;-36
2022/07/03 06:35:48;;;;;;;6.25;1.70;;;;;;;25.96;45.82;101699.28;4976925;28;20437;-36
2022/07/03 06:38:13;;;;;;;6.00;1.50;;;;;;;24.04;51.34;101694.81;4976902;28;20070;-35
2022/07/03 06:40:38;;;;;;;8.98;1.83;;;;;;;27.80;42.24;101704.38;4977352;28;20062;-37
2022/07/03 06:43:03;;;;;;;5.03;1.63;;;;;;;26.33;45.68;101710.28;4977141;28;20105;-35
2022/07/03 06:45:29;;;;;;;6.53;1.80;;;;;;;26.10;46.45;101701.09;4976796;28;20022;-35
2022/07/03 06:47:54;;;;;;;5.22;1.45;;;;;;;24.20;51.16;101709.72;4977023;28;20034;-35
2022/07/03 06:50:19;;;;;;;6.43;1.70;;;;;;;;;;4976686;28;20068;-36
2022/07/03 06:52:44;;;;;;;5.00;1.40;;;;;;;24.11;50.41;101711.25;4976751;28;20027;-35
2022/07/03 06:55:10;;;;;;;5.60;1.77;;;;;;;23.82;53.03;101701.03;4976455;28;20081;-35
2022/07/03 06:57:35;;;;;;;4.93;1.40;;;;;;;23.75;51.16;101710.19;4976597;28;20114;-35
2022/07/03 07:00:00;;;;;;;4.07;1.30;;;;;;;23.41;52.89;101703.28;4976529;28;20046;-35
2022/07/03 07:02:26;;;;;;;8.65;1.40;;;;;;;23.47;54.30;101708.63;4976538;28;20081;-35
2022/07/03 07:04:51;;;;;;;7.88;1.80;;;;;;;23.23;53.74;101705.50;4976523;28;20033;-36
2022/07/03 07:07:16;;;;;;;8.50;1.73;;;;;;;23.56;53.30;101702.66;4976396;28;20158;-36
2022/07/03 07:09:42;;;;;;;4.80;1.13;;;;;;;23.72;51.52;101698.31;4976749;28;20085;-36
2022/07/03 07:12:07;;;;;;;3.80;1.30;;;;;;;24.13;51.45;101689.84;4976164;28;20026;-35
2022/07/03 07:14:32;;;;;;;7.20;1.40;;;;;;;23.74;51.05;101696.22;4974834;28;20040;-37
2022/07/03 07:16:58;;;;;;;6.90;1.85;;;;;;;23.80;51.99;101691.78;4975094;28;20158;-36
2022/07/03 07:19:23;;;;;;;5.47;1.40;;;;;;;23.57;51.68;101701.59;4975208;28;20030;-37
2022/07/03 07:21:48;;;;;;;5.38;1.55;;;;;;;23.45;51.85;101702.78;4976057;28;20030;-37
2022/07/03 07:24:14;;;;;;;7.25;1.40;;;;;;;23.85;51.27;101699.69;4976033;28;20070;-36
2022/07/03 07:26:39;;;;;;;4.32;1.35;;;;;;;23.99;51.08;101694.78;4976023;28;20033;-37
2022/07/03 07:29:05;;;;;;;12.98;1.88;;;;;;;23.59;52.33;101694.22;4975987;28;20433;-36
2022/07/03 07:31:30;;;;;;;4.28;1.13;;;;;;;24.17;51.16;101697.03;4974623;28;20038;-36
2022/07/03 07:33:56;;;;;;;4.03;1.35;;;;;;;24.84;50.31;101700.75;4976204;28;20018;-37
2022/07/03 07:36:21;;;;;;;5.72;1.50;;;;;;;24.41;49.58;101713.25;4975375;28;20073;-36
2022/07/03 07:38:46;;;;;;;6.43;1.45;;;;;;;24.52;48.60;101714.13;4975878;28;20031;-36
2022/07/03 07:41:11;;;;;;;4.80;1.10;;;;;;;24.31;49.96;101711.34;4975588;28;20053;-37
2022/07/03 07:43:37;;;;;;;4.88;1.42;;;;;;;24.37;47.83;101717.47;4975132;28;20386;-36
2022/07/03 07:46:02;;;;;;;5.87;1.43;;;;;;;24.33;48.68;101719.78;4975859;28;20011;-36
2022/07/03 07:48:28;;;;;;;5.45;1.48;;;;;;;24.24;48.83;101726.63;4976031;28;20281;-37
2022/07/03 07:50:53;;;;;;;4.20;1.30;;;;;;;24.64;49.14;101722.63;4975725;28;20089;-36
2022/07/03 07:53:18;;;;;;;6.22;1.75;;;;;;;24.79;49.42;101719.22;4975577;28;20035;-36
2022/07/03 07:55:44;;;;;;;4.68;1.42;;;;;;;24.62;48.97;101723.94;4975457;28;20027;-37
2022/07/03 07:58:09;;;;;;;4.57;1.50;;;;;;;24.31;48.84;101729.03;4975441;28;20385;-36
2022/07/03 08:00:34;;;;;;;3.30;1.30;;;;;;;24.53;50.20;101726.25;4975329;28;20077;-37
2022/07/03 08:05:43;;;;;;;9.02;1.70;;;;;;;24.43;50.42;101729.66;4975960;28;20382;-36
2022/07/03 08:08:15;;;;;;;6.13;1.88;;;;;;;24.97;48.21;101729.34;4975339;28;20034;-36
2022/07/03 08:10:47;;;;;;;4.53;1.48;;;;;;;25.53;46.52;101736.59;4974311;28;20031;-36
2022/07/03 08:13:14;;;;;;;6.00;1.88;;;;;;;25.36;48.63;101734.19;4975432;28;20077;-36
2022/07/03 08:15:40;;;;;;;4.75;1.50;;;;;;;25.15;47.52;101743.97;4974847;28;20449;-35
2022/07/03 08:18:05;;;;;;;5.35;1.60;;;;;;;25.40;48.08;101745.81;4973887;28;20378;-36
2022/07/03 08:20:32;;;;;;;7.93;1.80;;;;;;;25.31;47.40;101741.31;4975021;28;20029;-37
2022/07/03 08:22:57;;;;;;;6.35;1.58;;;;;;;25.97;46.21;101735.28;4974962;28;20059;-35
2022/07/03 08:25:23;;;;;;;3.80;1.33;;;;;;;26.27;45.48;101739.72;4973744;28;20089;-35
2022/07/03 08:27:50;;;;;;;3.30;1.50;;;;;;;25.15;47.86;101736.03;4975233;28;20101;-36
2022/07/03 08:30:17;;;;;;;6.72;1.75;;;;;;;25.20;48.16;101737.88;4973649;28;20031;-35
2022/07/03 08:32:49;;;;;;;7.57;1.60;;;;;;;25.11;46.49;101736.75;4975247;28;20058;-36
2022/07/03 08:35:16;;;;;;;5.28;1.60;;;;;;;24.75;49.13;101740.09;4973559;28;20449;-36
2022/07/03 08:37:43;;;;;;;5.80;1.27;;;;;;;24.81;49.89;101751.50;4957862;28;20033;-36
2022/07/03 08:40:12;;;;;;;5.97;1.75;;;;;;;24.76;50.01;101746.97;4974581;28;20034;-35
2022/07/03 08:42:43;;;;;;;7.43;1.83;;;;;;;23.91;51.82;101734.84;4974658;28;20437;-36
2022/07/03 08:45:13;;;;;;;4.90;1.58;;;;;;;24.01;51.95;101741.00;4974612;28;20027;-36
2022/07/03 08:47:41;;;;;;;3.28;1.25;;;;;;;24.98;49.77;101732.78;4974879;28;20497;-36
2022/07/03 08:50:08;;;;;;;7.22;1.50;;;;;;;25.12;48.01;101735.72;4973515;28;20073;-34
2022/07/03 08:52:34;;;;;;;6.18;1.45;;;;;;;25.19;47.55;101734.44;4974924;28;20030;-35
2022/07/03 08:55:01;;;;;;;3.67;1.33;;;;;;;25.09;47.66;101741.50;4974885;28;20069;-39
2022/07/03 08:57:27;;;;;;;4.60;1.58;;;;;;;24.44;49.13;101735.75;4974846;28;20458;-36
2022/07/03 08:59:53;;;;;;;7.22;1.42;;;;;;;25.01;48.87;101739.41;4974639;28;20031;-35
2022/07/03 09:02:21;;;;;;;4.05;1.50;;;;;;;25.25;48.48;101729.16;4974844;28;20023;-36
2022/07/03 09:04:46;;;;;;;7.20;1.67;;;;;;;25.95;45.87;101732.09;4974486;28;20033;-37
2022/07/03 09:07:13;;;;;;;8.40;1.88;;;;;;;25.48;47.36;101738.44;4973936;28;20113;-36
2022/07/03 09:09:39;;;;;;;6.80;1.63;;;;;;;24.41;50.93;101730.94;4974501;28;20027;-36
2022/07/03 09:12:05;;;;;;;5.93;2.00;;;;;;;23.80;53.46;101718.94;4971958;28;20027;-37
2022/07/03 09:14:30;;;;;;;5.47;1.42;;;;;;;23.53;54.84;101726.06;4973344;28;20536;-36
2022/07/03 09:16:56;;;;;;;10.88;1.80;;;;;;;22.65;57.61;101731.47;4973899;28;20478;-36
2022/07/03 09:19:43;;;;;;;4.18;1.58;;;;;;;22.05;60.01;101741.66;4974080;28;20038;-36
2022/07/03 09:22:23;;;;;;;5.32;1.50;;;;;;;22.02;59.21;101736.88;4972696;28;20059;-35
2022/07/03 09:24:50;;;;;;;5.13;1.40;;;;;;;21.93;59.54;101746.22;4972319;28;20063;-36
2022/07/03 09:27:17;;;;;;;5.45;1.60;;;;;;;22.10;58.17;101743.59;4972445;28;20034;-35
2022/07/03 09:30:04;;;;;;;5.10;1.70;;;;;;;22.37;57.81;101740.31;4972460;28;20082;-35
2022/07/03 09:32:40;;;;;;;5.28;1.42;;;;;;;22.61;56.69;101736.41;4972546;28;20379;-36
2022/07/03 09:35:26;;;;;;;7.72;1.92;;;;;;;22.58;56.60;101741.34;4972826;28;20055;-36
2022/07/03 09:37:56;;;;;;;4.70;1.40;;;;;;;22.90;56.97;101730.94;4974656;28;20033;-36
2022/07/03 09:40:27;;;;;;;4.15;1.50;;;;;;;23.47;55.54;101727.88;4974147;28;20154;-36
2022/07/03 09:43:06;;;;;;;6.72;2.08;;;;;;;23.36;53.76;101732.28;4974137;28;20513;-36
2022/07/03 09:45:53;;;;;;;4.38;1.50;;;;;;;23.65;54.83;101739.91;4974132;28;20050;-35
2022/07/03 09:48:38;;;;;;;5.07;1.60;;;;;;;23.79;53.11;101737.66;4974171;28;20027;-35
2022/07/03 09:51:16;;;;;;;4.68;1.80;;;;;;;24.50;51.80;101732.06;4973352;28;20026;-35
2022/07/03 09:53:53;;;;;;;4.50;1.63;;;;;;;25.94;48.25;101733.94;4974257;28;20035;-37
2022/07/03 09:56:19;;;;;;;4.40;1.65;;;;;;;26.83;47.24;101742.19;4974642;28;20026;-35
2022/07/03 09:59:03;;;;;;;6.03;1.75;;;;;;;26.05;48.85;101750.63;4974504;28;20078;-35
2022/07/03 10:01:29;;;;;;;6.15;1.63;;;;;;;26.42;46.85;101742.31;4977760;28;20031;-36
2022/07/03 10:04:07;;;;;;;5.43;1.27;;;;;;;25.75;50.13;101746.09;4977464;28;20027;-36
2022/07/03 10:06:51;;;;;;;12.13;2.17;;;;;;;24.68;51.30;101744.03;4977576;28;20045;-36
2022/07/03 10:09:19;;;;;;;5.00;1.55;;;;;;;24.42;52.75;101741.22;4976100;28;20057;-35
2022/07/03 10:11:45;;;;;;;6.63;2.30;;;;;;;24.11;53.69;101740.28;4977311;28;20023;-35
2022/07/03 10:14:14;;;;;;;3.78;1.70;;;;;;;23.99;53.27;101739.66;4977270;28;20026;-36
2022/07/03 10:16:40;;;;;;;5.82;1.65;;;;;;;24.28;53.38;101740.09;4977741;28;20429;-37
2022/07/03 10:19:10;;;;;;;4.53;1.40;;;;;;;24.22;51.60;101739.28;4977275;28;20054;-36
2022/07/03 10:21:35;;;;;;;6.20;1.60;;;;;;;25.10;51.66;101741.25;4977244;28;20034;-35
2022/07/03 10:24:02;;;;;;;5.65;1.58;;;;;;;24.80;51.12;101736.69;4977108;28;20498;-36
2022/07/03 10:26:28;;;;;;;4.35;1.27;;;;;;;24.11;52.86;101729.72;4977254;28;20478;-35
2022/07/03 10:28:56;;;;;;;5.70;1.50;;;;;;;23.52;54.32;101730.56;4977134;28;20027;-36
2022/07/03 10:31:23;;;;;;;5.97;1.63;;;;;;;23.25;53.85;101732.41;4976937;28;20072;-36
2022/07/03 10:33:50;;;;;;;4.97;1.60;;;;;;;23.21;55.35;101726.84;4976728;28;20023;-37
2022/07/03 10:36:15;;;;;;;4.55;1.60;;;;;;;22.93;56.01;101735.72;4976647;28;20041;-36
2022/07/03 10:38:45;;;;;;;6.60;1.65;;;;;;;22.59;55.77;101735.06;4976941;28;20027;-36
2022/07/03 10:47:01;;;;;;;10.45;2.30;;;;;;;20.43;73.55;101772.47;4977051;28;20504;-37
2022/07/03 10:49:27;;;;;;;8.15;2.33;;;;;;;20.17;79.06;101763.22;4977044;28;20022;-36
2022/07/03 10:51:57;;;;;;;5.30;1.95;;;;;;;19.98;79.26;101778.25;4976620;28;20030;-37
2022/07/03 10:54:39;;;;;;;5.10;2.00;;;;;;;19.84;81.98;101780.25;4976890;28;20054;-36
2022/07/03 10:57:05;;;;;;;6.85;2.08;;;;;;;19.72;82.84;101789.94;4976653;28;20050;-37
2022/07/03 10:59:36;;;;;;;9.00;2.13;;;;;;;19.54;84.14;101796.00;4976604;28;20038;-36
2022/07/03 11:02:38;;;;;;;6.55;2.25;;;;;;;19.59;84.24;101801.38;4976278;28;20074;-36
2022/07/03 11:05:25;;;;;;;10.55;2.70;;;;;;;19.38;85.57;101807.09;4976201;28;20385;-37
2022/07/03 11:07:50;;;;;;;7.75;2.25;;;;;;;19.50;86.33;101794.03;4976195;28;20374;-37
2022/07/03 11:10:16;;;;;;;6.10;2.27;;;;;;;19.52;87.53;101787.53;4975360;28;20106;-37
2022/07/03 11:13:07;;;;;;;4.70;2.20;;;;;;;19.54;87.48;101789.97;4976416;28;20337;-36
2022/07/03 11:15:33;;;;;;;7.45;2.22;;;;;;;19.75;86.90;101786.84;4976346;28;20022;-38
2022/07/03 11:18:13;;;;;;;4.40;2.00;;;;;;;20.01;86.94;101795.38;4976762;28;20141;-36
2022/07/03 11:20:43;;;;;;;7.65;1.90;;;;;;;20.77;84.23;101785.03;4976022;28;20035;-36
2022/07/03 11:23:09;;;;;;;4.03;1.90;;;;;;;21.58;82.49;101783.25;4976074;28;20055;-36
2022/07/03 11:25:41;;;;;;;5.65;2.15;;;;;;;22.15;81.88;101775.22;4975518;28;20065;-40
2022/07/03 11:28:06;;;;;;;7.90;2.10;;;;;;;22.49;78.84;101773.38;4976165;28;20029;-37
2022/07/03 11:30:32;;;;;;;5.57;1.92;;;;;;;22.82;76.28;101776.19;4975911;28;20266;-36
2022/07/03 11:33:00;;;;;;;5.57;1.63;;;;;;;22.81;70.97;101774.59;4975591;28;20026;-37
2022/07/03 11:35:45;;;;;;;2.88;1.77;;;;;;;23.46;72.07;101779.03;4975585;28;20037;-35
2022/07/03 11:38:14;;;;;;;6.00;1.58;;;;;;;23.74;67.31;101766.66;4975771;28;20081;-38
2022/07/03 11:40:42;;;;;;;3.38;1.65;;;;;;;24.16;69.01;101758.00;4975389;28;20386;-36
2022/07/03 11:43:07;;;;;;;5.47;1.60;;;;;;;24.23;61.71;101762.00;4975849;28;20018;-39
2022/07/03 11:45:33;;;;;;;3.72;1.40;;;;;;;24.42;66.07;101765.00;4974119;28;20043;-34